Melton Constable, United Kingdom
Current Conditions -  °F | °C
As of 10:50 AM on Tuesday 21 Oct 2014 (Local Time) from EGSH Reporting Station
Rain Showers Rain Showers  
Wind Chill: 54°   Ceiling: Unl
Heat Index: 54°   Visibility: 6mi
Dew Point: 46°   Wind: 24mph
Humidity: 77%   Direction: 270°W
Pressure: 29.47"   Gusts: 36mph
Location:  52.87°N, 1.08°E
Report Text: EGSH 210950Z 27021G31KT 9000 VCSH FEW015 SCT030 12/08 Q0998
Loading
Personal Weather Stations






























Interactive Weather Map
Tropical Storm Tracking
New forecast layout! Learn more

10-Day Weather Forecast

Advertisements
Track Severe Weather on mobile